Main page
METAR-TAF:

METAR-TAF

Airports :

Porto, Portugal

Porto Airport

latitude: 41-14N, longitude: 008-41W, elevation: 69 m

Current weather observation

The report was made 48 minutes ago, at 19:30 UTC
Wind 3 kt from the East/Northeast, varying between North and Southeast
Temperature 7°C
Humidity 87%
Pressure 1032 hPa
Visibility 10 km or more
no clouds below 1500 m and no cumulonimbus

METAR: LPPR 181930Z 07003KT 350V130 CAVOK 07/05 Q1032

Time: 20:18 (20:18 UTC)

Forecast

The report was made 3 hours and 18 minutes ago, at 17:00 UTC
Forecast valid from 18 at 18 UTC to 19 at 18 UTC
Wind 3 kt from variable directions
Visibility 10 km or more
no clouds below 1500 m and no cumulonimbus
Becoming
from 18 at 18 UTC to 18 at 21 UTC
Wind 5 kt from the North/Northeast
Becoming
from 19 at 00 UTC to 19 at 03 UTC
Wind 7 kt from the East

TAF: LPPR 181700Z 1818/1918 VRB03KT CAVOK BECMG 1818/1821 03005KT BECMG 1900/1903 08007KT

Weather observations and forecasts of more than 4000 airports (METAR and TAF reports).

The available stations are represented by yellow and red dots on the map.

Hover mouse over dot to see the name of the station.

Then click to see weather observations and forecasts.

To change the map : click on the green buttons with a black cross to zoom in, on the green button with a dash to zoom out, or on the green arrows for adjacent maps.


METAR-TAF: